New Orleans, Louisiana
Traffic Map
Current Weather Conditions
New Orleans, Louisiana
Few Clouds
Few Clouds
79°
Feels Like: 83°
Wind Chill: 79° Ceiling: Unl
Heat Index: 83° Visibility: 10mi
Dew Point: 76° Wind: 5mph
Humidity: 90% Direction: 350° (N)
Pressure: 30.1in Gusts: 0mph
Raw Report DataKNEW 251053Z AUTO 35004KT 10SM FEW009 26/24 A3010 RMK AO2 SLP185 T02610244
Traffic Incident Summary
Active as of:
Severity:
Category:
InformationThere was an issue retrieving the traffic information for this location. Please try a different location or try again shortly.
Advertisements
Track Severe Weather on mobile